sensor_id;sensor_type;location;lat;lon;timestamp;P1;durP1;ratioP1;P2;durP2;ratioP2
79493;SDS011;68951;53.130;18.104;2023-06-10T00:02:00;6.60;;;3.00;;
79493;SDS011;68951;53.130;18.104;2023-06-10T00:04:27;8.10;;;3.30;;
79493;SDS011;68951;53.130;18.104;2023-06-10T00:06:54;8.00;;;3.00;;
79493;SDS011;68951;53.130;18.104;2023-06-10T00:09:21;7.50;;;3.60;;
79493;SDS011;68951;53.130;18.104;2023-06-10T00:11:49;7.80;;;3.40;;
79493;SDS011;68951;53.130;18.104;2023-06-10T00:14:16;8.50;;;3.00;;
79493;SDS011;68951;53.130;18.104;2023-06-10T00:16:43;8.20;;;3.10;;
79493;SDS011;68951;53.130;18.104;2023-06-10T00:19:11;7.30;;;3.10;;
79493;SDS011;68951;53.130;18.104;2023-06-10T00:21:40;8.10;;;3.80;;
79493;SDS011;68951;53.130;18.104;2023-06-10T00:24:08;8.80;;;3.30;;
79493;SDS011;68951;53.130;18.104;2023-06-10T00:26:39;6.90;;;3.30;;
79493;SDS011;68951;53.130;18.104;2023-06-10T00:29:07;7.60;;;3.10;;
79493;SDS011;68951;53.130;18.104;2023-06-10T00:31:36;6.40;;;2.90;;
79493;SDS011;68951;53.130;18.104;2023-06-10T00:34:04;7.30;;;3.30;;
79493;SDS011;68951;53.130;18.104;2023-06-10T00:36:31;7.90;;;3.60;;
79493;SDS011;68951;53.130;18.104;2023-06-10T00:38:57;7.80;;;3.10;;
79493;SDS011;68951;53.130;18.104;2023-06-10T00:41:25;8.20;;;3.40;;
79493;SDS011;68951;53.130;18.104;2023-06-10T00:43:55;8.00;;;3.50;;
79493;SDS011;68951;53.130;18.104;2023-06-10T00:46:24;10.80;;;3.60;;
79493;SDS011;68951;53.130;18.104;2023-06-10T00:48:52;6.00;;;3.00;;
79493;SDS011;68951;53.130;18.104;2023-06-10T00:51:19;10.90;;;3.60;;
79493;SDS011;68951;53.130;18.104;2023-06-10T00:53:47;7.80;;;3.30;;
79493;SDS011;68951;53.130;18.104;2023-06-10T00:56:14;9.00;;;3.40;;
79493;SDS011;68951;53.130;18.104;2023-06-10T00:58:42;7.70;;;3.10;;
79493;SDS011;68951;53.130;18.104;2023-06-10T01:01:09;10.00;;;3.40;;
79493;SDS011;68951;53.130;18.104;2023-06-10T01:03:37;8.20;;;3.50;;
79493;SDS011;68951;53.130;18.104;2023-06-10T01:06:14;7.40;;;3.50;;
79493;SDS011;68951;53.130;18.104;2023-06-10T01:08:59;7.90;;;3.10;;
79493;SDS011;68951;53.130;18.104;2023-06-10T01:11:43;8.00;;;2.90;;
79493;SDS011;68951;53.130;18.104;2023-06-10T01:14:13;6.80;;;3.30;;
79493;SDS011;68951;53.130;18.104;2023-06-10T01:16:44;7.00;;;3.40;;
79493;SDS011;68951;53.130;18.104;2023-06-10T01:19:12;8.90;;;3.80;;
79493;SDS011;68951;53.130;18.104;2023-06-10T01:21:44;8.50;;;3.90;;
79493;SDS011;68951;53.130;18.104;2023-06-10T01:24:15;6.50;;;3.20;;
79493;SDS011;68951;53.130;18.104;2023-06-10T01:26:46;6.70;;;3.20;;
79493;SDS011;68951;53.130;18.104;2023-06-10T01:29:20;7.90;;;3.40;;
79493;SDS011;68951;53.130;18.104;2023-06-10T01:32:07;7.10;;;3.50;;
79493;SDS011;68951;53.130;18.104;2023-06-10T01:34:39;8.10;;;3.40;;
79493;SDS011;68951;53.130;18.104;2023-06-10T01:37:15;8.10;;;3.50;;
79493;SDS011;68951;53.130;18.104;2023-06-10T01:39:46;7.30;;;3.10;;
79493;SDS011;68951;53.130;18.104;2023-06-10T01:42:15;9.00;;;4.10;;
79493;SDS011;68951;53.130;18.104;2023-06-10T01:44:42;8.00;;;3.40;;
79493;SDS011;68951;53.130;18.104;2023-06-10T01:47:09;7.00;;;3.40;;
79493;SDS011;68951;53.130;18.104;2023-06-10T01:49:36;7.70;;;3.50;;
79493;SDS011;68951;53.130;18.104;2023-06-10T01:52:03;6.90;;;3.30;;
79493;SDS011;68951;53.130;18.104;2023-06-10T01:54:30;9.30;;;3.70;;
79493;SDS011;68951;53.130;18.104;2023-06-10T01:56:57;7.40;;;3.20;;
79493;SDS011;68951;53.130;18.104;2023-06-10T01:59:24;7.60;;;3.50;;
79493;SDS011;68951;53.130;18.104;2023-06-10T02:01:51;7.90;;;3.50;;
79493;SDS011;68951;53.130;18.104;2023-06-10T02:04:17;7.40;;;3.60;;
79493;SDS011;68951;53.130;18.104;2023-06-10T02:06:45;8.20;;;3.70;;
79493;SDS011;68951;53.130;18.104;2023-06-10T02:09:11;7.70;;;3.50;;
79493;SDS011;68951;53.130;18.104;2023-06-10T02:11:38;8.30;;;3.40;;
79493;SDS011;68951;53.130;18.104;2023-06-10T02:14:06;9.00;;;3.40;;
79493;SDS011;68951;53.130;18.104;2023-06-10T02:16:33;8.50;;;3.70;;
79493;SDS011;68951;53.130;18.104;2023-06-10T02:18:59;6.80;;;3.50;;
79493;SDS011;68951;53.130;18.104;2023-06-10T02:21:27;8.30;;;3.50;;
79493;SDS011;68951;53.130;18.104;2023-06-10T02:23:54;8.10;;;3.30;;
79493;SDS011;68951;53.130;18.104;2023-06-10T02:26:20;9.30;;;3.60;;
79493;SDS011;68951;53.130;18.104;2023-06-10T02:28:47;8.40;;;3.60;;
79493;SDS011;68951;53.130;18.104;2023-06-10T02:31:14;8.00;;;3.60;;
79493;SDS011;68951;53.130;18.104;2023-06-10T02:33:44;7.40;;;3.70;;
79493;SDS011;68951;53.130;18.104;2023-06-10T02:36:11;9.40;;;3.20;;
79493;SDS011;68951;53.130;18.104;2023-06-10T02:38:39;7.00;;;3.60;;
79493;SDS011;68951;53.130;18.104;2023-06-10T02:41:06;7.70;;;3.40;;
79493;SDS011;68951;53.130;18.104;2023-06-10T02:43:33;7.00;;;3.20;;
79493;SDS011;68951;53.130;18.104;2023-06-10T02:46:00;7.90;;;3.40;;
79493;SDS011;68951;53.130;18.104;2023-06-10T02:48:27;8.70;;;3.70;;
79493;SDS011;68951;53.130;18.104;2023-06-10T02:50:54;8.20;;;3.60;;
79493;SDS011;68951;53.130;18.104;2023-06-10T02:53:22;6.90;;;3.50;;
79493;SDS011;68951;53.130;18.104;2023-06-10T02:55:49;7.40;;;3.20;;
79493;SDS011;68951;53.130;18.104;2023-06-10T02:58:16;8.80;;;3.50;;
79493;SDS011;68951;53.130;18.104;2023-06-10T03:00:43;7.20;;;3.70;;
79493;SDS011;68951;53.130;18.104;2023-06-10T03:03:10;8.30;;;3.40;;
79493;SDS011;68951;53.130;18.104;2023-06-10T03:05:37;10.00;;;3.30;;
79493;SDS011;68951;53.130;18.104;2023-06-10T03:08:04;8.00;;;3.60;;
79493;SDS011;68951;53.130;18.104;2023-06-10T03:10:31;9.70;;;3.70;;
79493;SDS011;68951;53.130;18.104;2023-06-10T03:12:59;8.20;;;3.80;;
79493;SDS011;68951;53.130;18.104;2023-06-10T03:15:26;8.90;;;3.80;;
79493;SDS011;68951;53.130;18.104;2023-06-10T03:17:55;6.20;;;3.30;;
79493;SDS011;68951;53.130;18.104;2023-06-10T03:20:22;7.60;;;3.50;;
79493;SDS011;68951;53.130;18.104;2023-06-10T03:22:49;9.00;;;3.70;;
79493;SDS011;68951;53.130;18.104;2023-06-10T03:25:16;11.30;;;3.60;;
79493;SDS011;68951;53.130;18.104;2023-06-10T03:27:43;7.50;;;3.40;;
79493;SDS011;68951;53.130;18.104;2023-06-10T03:30:12;6.90;;;3.60;;
79493;SDS011;68951;53.130;18.104;2023-06-10T03:32:40;7.10;;;3.60;;
79493;SDS011;68951;53.130;18.104;2023-06-10T03:35:07;6.90;;;3.10;;
79493;SDS011;68951;53.130;18.104;2023-06-10T03:37:34;9.90;;;4.00;;
79493;SDS011;68951;53.130;18.104;2023-06-10T03:40:01;7.90;;;3.80;;
79493;SDS011;68951;53.130;18.104;2023-06-10T03:42:28;8.80;;;3.80;;
79493;SDS011;68951;53.130;18.104;2023-06-10T03:44:55;8.90;;;3.30;;
79493;SDS011;68951;53.130;18.104;2023-06-10T03:47:22;7.40;;;3.60;;
79493;SDS011;68951;53.130;18.104;2023-06-10T03:49:49;8.60;;;3.60;;
79493;SDS011;68951;53.130;18.104;2023-06-10T03:52:17;8.20;;;3.60;;
79493;SDS011;68951;53.130;18.104;2023-06-10T03:54:44;9.70;;;3.70;;
79493;SDS011;68951;53.130;18.104;2023-06-10T03:57:11;7.80;;;3.80;;
79493;SDS011;68951;53.130;18.104;2023-06-10T03:59:37;6.70;;;3.50;;
79493;SDS011;68951;53.130;18.104;2023-06-10T04:02:04;8.70;;;3.70;;
79493;SDS011;68951;53.130;18.104;2023-06-10T04:04:33;6.10;;;3.10;;
79493;SDS011;68951;53.130;18.104;2023-06-10T04:07:00;8.10;;;3.30;;
79493;SDS011;68951;53.130;18.104;2023-06-10T04:09:27;6.30;;;2.70;;
79493;SDS011;68951;53.130;18.104;2023-06-10T04:11:54;7.20;;;3.20;;
79493;SDS011;68951;53.130;18.104;2023-06-10T04:14:20;6.60;;;2.90;;
79493;SDS011;68951;53.130;18.104;2023-06-10T04:16:47;9.40;;;3.30;;
79493;SDS011;68951;53.130;18.104;2023-06-10T04:19:16;7.00;;;3.10;;
79493;SDS011;68951;53.130;18.104;2023-06-10T04:21:43;7.70;;;3.20;;
79493;SDS011;68951;53.130;18.104;2023-06-10T04:24:10;6.60;;;2.70;;
79493;SDS011;68951;53.130;18.104;2023-06-10T04:26:37;7.50;;;3.20;;
79493;SDS011;68951;53.130;18.104;2023-06-10T04:29:04;10.30;;;3.10;;
79493;SDS011;68951;53.130;18.104;2023-06-10T04:31:31;5.60;;;3.20;;
79493;SDS011;68951;53.130;18.104;2023-06-10T04:33:59;6.30;;;2.60;;
79493;SDS011;68951;53.130;18.104;2023-06-10T04:36:27;6.50;;;2.80;;
79493;SDS011;68951;53.130;18.104;2023-06-10T04:38:55;5.80;;;2.30;;
79493;SDS011;68951;53.130;18.104;2023-06-10T04:41:22;5.90;;;2.40;;
79493;SDS011;68951;53.130;18.104;2023-06-10T04:43:49;9.10;;;2.80;;
79493;SDS011;68951;53.130;18.104;2023-06-10T04:46:16;7.70;;;3.00;;
79493;SDS011;68951;53.130;18.104;2023-06-10T04:48:43;6.00;;;2.30;;
79493;SDS011;68951;53.130;18.104;2023-06-10T04:51:13;7.90;;;2.50;;
79493;SDS011;68951;53.130;18.104;2023-06-10T04:53:40;7.30;;;2.70;;
79493;SDS011;68951;53.130;18.104;2023-06-10T04:56:07;5.80;;;2.30;;
79493;SDS011;68951;53.130;18.104;2023-06-10T04:58:34;7.60;;;2.70;;
79493;SDS011;68951;53.130;18.104;2023-06-10T05:01:01;6.20;;;2.20;;
79493;SDS011;68951;53.130;18.104;2023-06-10T05:03:28;7.10;;;2.40;;
79493;SDS011;68951;53.130;18.104;2023-06-10T05:05:55;6.90;;;2.50;;
79493;SDS011;68951;53.130;18.104;2023-06-10T05:08:22;13.00;;;2.30;;
79493;SDS011;68951;53.130;18.104;2023-06-10T05:10:48;8.20;;;2.30;;
79493;SDS011;68951;53.130;18.104;2023-06-10T05:13:16;6.30;;;2.40;;
79493;SDS011;68951;53.130;18.104;2023-06-10T05:15:44;8.00;;;2.30;;
79493;SDS011;68951;53.130;18.104;2023-06-10T05:18:12;7.00;;;2.90;;
79493;SDS011;68951;53.130;18.104;2023-06-10T05:20:39;5.90;;;2.40;;
79493;SDS011;68951;53.130;18.104;2023-06-10T05:23:05;5.40;;;2.40;;
79493;SDS011;68951;53.130;18.104;2023-06-10T05:25:33;8.10;;;2.40;;
79493;SDS011;68951;53.130;18.104;2023-06-10T05:28:00;7.10;;;2.60;;
79493;SDS011;68951;53.130;18.104;2023-06-10T05:30:27;6.20;;;2.40;;
79493;SDS011;68951;53.130;18.104;2023-06-10T05:32:54;6.40;;;2.30;;
79493;SDS011;68951;53.130;18.104;2023-06-10T05:35:22;6.20;;;2.30;;
79493;SDS011;68951;53.130;18.104;2023-06-10T05:37:49;6.00;;;2.40;;
79493;SDS011;68951;53.130;18.104;2023-06-10T05:40:16;8.40;;;2.30;;
79493;SDS011;68951;53.130;18.104;2023-06-10T05:42:42;7.00;;;2.60;;
79493;SDS011;68951;53.130;18.104;2023-06-10T05:45:10;6.80;;;2.60;;
79493;SDS011;68951;53.130;18.104;2023-06-10T05:47:37;5.80;;;2.20;;
79493;SDS011;68951;53.130;18.104;2023-06-10T05:50:04;5.20;;;2.30;;
79493;SDS011;68951;53.130;18.104;2023-06-10T05:52:36;9.80;;;2.40;;
79493;SDS011;68951;53.130;18.104;2023-06-10T05:55:03;5.40;;;2.10;;
79493;SDS011;68951;53.130;18.104;2023-06-10T05:57:30;8.80;;;2.90;;
79493;SDS011;68951;53.130;18.104;2023-06-10T05:59:57;6.70;;;2.50;;
79493;SDS011;68951;53.130;18.104;2023-06-10T06:02:24;7.00;;;2.50;;
79493;SDS011;68951;53.130;18.104;2023-06-10T06:04:51;6.80;;;2.60;;
79493;SDS011;68951;53.130;18.104;2023-06-10T06:07:18;7.20;;;2.60;;
79493;SDS011;68951;53.130;18.104;2023-06-10T06:09:47;6.30;;;2.60;;
79493;SDS011;68951;53.130;18.104;2023-06-10T06:12:14;7.40;;;2.30;;
79493;SDS011;68951;53.130;18.104;2023-06-10T06:14:41;6.00;;;2.70;;
79493;SDS011;68951;53.130;18.104;2023-06-10T06:17:08;7.40;;;2.70;;
79493;SDS011;68951;53.130;18.104;2023-06-10T06:19:34;6.50;;;2.40;;
79493;SDS011;68951;53.130;18.104;2023-06-10T06:22:01;6.90;;;2.90;;
79493;SDS011;68951;53.130;18.104;2023-06-10T06:24:29;6.00;;;2.50;;
79493;SDS011;68951;53.130;18.104;2023-06-10T06:26:56;6.10;;;2.50;;
79493;SDS011;68951;53.130;18.104;2023-06-10T06:29:23;6.20;;;2.40;;
79493;SDS011;68951;53.130;18.104;2023-06-10T06:31:49;7.50;;;2.20;;
79493;SDS011;68951;53.130;18.104;2023-06-10T06:34:17;5.50;;;2.50;;
79493;SDS011;68951;53.130;18.104;2023-06-10T06:36:43;7.70;;;2.70;;
79493;SDS011;68951;53.130;18.104;2023-06-10T06:39:10;7.10;;;2.40;;
79493;SDS011;68951;53.130;18.104;2023-06-10T06:41:37;7.30;;;2.70;;
79493;SDS011;68951;53.130;18.104;2023-06-10T06:44:04;6.80;;;2.80;;
79493;SDS011;68951;53.130;18.104;2023-06-10T06:46:31;8.00;;;3.00;;
79493;SDS011;68951;53.130;18.104;2023-06-10T06:48:57;5.60;;;2.30;;
79493;SDS011;68951;53.130;18.104;2023-06-10T06:51:24;6.50;;;2.70;;
79493;SDS011;68951;53.130;18.104;2023-06-10T06:53:51;9.70;;;2.80;;
79493;SDS011;68951;53.130;18.104;2023-06-10T06:56:21;6.80;;;2.60;;
79493;SDS011;68951;53.130;18.104;2023-06-10T06:58:47;6.20;;;2.40;;
79493;SDS011;68951;53.130;18.104;2023-06-10T07:01:14;10.10;;;2.70;;
79493;SDS011;68951;53.130;18.104;2023-06-10T07:03:41;8.20;;;2.70;;
79493;SDS011;68951;53.130;18.104;2023-06-10T07:06:08;8.00;;;2.30;;
79493;SDS011;68951;53.130;18.104;2023-06-10T07:08:35;6.80;;;2.80;;
79493;SDS011;68951;53.130;18.104;2023-06-10T07:11:02;6.00;;;2.60;;
79493;SDS011;68951;53.130;18.104;2023-06-10T07:13:28;8.40;;;2.80;;
79493;SDS011;68951;53.130;18.104;2023-06-10T07:15:55;7.90;;;2.80;;
79493;SDS011;68951;53.130;18.104;2023-06-10T07:18:22;6.60;;;2.60;;
79493;SDS011;68951;53.130;18.104;2023-06-10T07:20:49;10.30;;;3.10;;
79493;SDS011;68951;53.130;18.104;2023-06-10T07:23:16;5.70;;;2.60;;
79493;SDS011;68951;53.130;18.104;2023-06-10T07:25:43;7.10;;;2.70;;
79493;SDS011;68951;53.130;18.104;2023-06-10T07:28:09;6.00;;;2.90;;
79493;SDS011;68951;53.130;18.104;2023-06-10T07:30:36;7.60;;;3.00;;
79493;SDS011;68951;53.130;18.104;2023-06-10T07:33:03;9.20;;;3.60;;
79493;SDS011;68951;53.130;18.104;2023-06-10T07:35:32;7.20;;;3.40;;
79493;SDS011;68951;53.130;18.104;2023-06-10T07:37:59;7.10;;;3.40;;
79493;SDS011;68951;53.130;18.104;2023-06-10T07:40:25;10.00;;;2.80;;
79493;SDS011;68951;53.130;18.104;2023-06-10T07:42:52;7.40;;;3.30;;
79493;SDS011;68951;53.130;18.104;2023-06-10T07:45:19;7.30;;;2.80;;
79493;SDS011;68951;53.130;18.104;2023-06-10T07:47:46;6.40;;;2.90;;
79493;SDS011;68951;53.130;18.104;2023-06-10T07:50:13;6.70;;;2.90;;
79493;SDS011;68951;53.130;18.104;2023-06-10T07:52:40;5.80;;;2.90;;
79493;SDS011;68951;53.130;18.104;2023-06-10T07:55:07;7.00;;;2.60;;
79493;SDS011;68951;53.130;18.104;2023-06-10T07:57:34;5.50;;;2.70;;
79493;SDS011;68951;53.130;18.104;2023-06-10T08:00:03;7.70;;;2.70;;
79493;SDS011;68951;53.130;18.104;2023-06-10T08:02:31;5.50;;;2.40;;
79493;SDS011;68951;53.130;18.104;2023-06-10T08:04:58;7.80;;;2.70;;
79493;SDS011;68951;53.130;18.104;2023-06-10T08:07:25;8.40;;;2.60;;
79493;SDS011;68951;53.130;18.104;2023-06-10T08:09:51;7.90;;;3.20;;
79493;SDS011;68951;53.130;18.104;2023-06-10T08:12:18;9.40;;;3.50;;
79493;SDS011;68951;53.130;18.104;2023-06-10T08:14:46;11.50;;;2.60;;
79493;SDS011;68951;53.130;18.104;2023-06-10T08:17:13;8.00;;;3.00;;
79493;SDS011;68951;53.130;18.104;2023-06-10T08:19:40;7.60;;;2.50;;
79493;SDS011;68951;53.130;18.104;2023-06-10T08:22:07;9.60;;;3.00;;
79493;SDS011;68951;53.130;18.104;2023-06-10T08:24:34;7.20;;;3.00;;
79493;SDS011;68951;53.130;18.104;2023-06-10T08:27:00;7.10;;;2.60;;
79493;SDS011;68951;53.130;18.104;2023-06-10T08:29:27;6.80;;;2.70;;
79493;SDS011;68951;53.130;18.104;2023-06-10T08:31:55;6.50;;;2.60;;
79493;SDS011;68951;53.130;18.104;2023-06-10T08:34:22;6.10;;;2.80;;
79493;SDS011;68951;53.130;18.104;2023-06-10T08:36:49;9.00;;;2.60;;
79493;SDS011;68951;53.130;18.104;2023-06-10T08:39:22;7.80;;;2.60;;
79493;SDS011;68951;53.130;18.104;2023-06-10T08:44:43;9.20;;;2.80;;
79493;SDS011;68951;53.130;18.104;2023-06-10T08:47:16;6.70;;;2.80;;
79493;SDS011;68951;53.130;18.104;2023-06-10T08:49:45;6.70;;;2.80;;
79493;SDS011;68951;53.130;18.104;2023-06-10T08:52:20;5.60;;;2.80;;
79493;SDS011;68951;53.130;18.104;2023-06-10T08:54:59;7.70;;;2.50;;
79493;SDS011;68951;53.130;18.104;2023-06-10T08:57:29;6.80;;;2.60;;
79493;SDS011;68951;53.130;18.104;2023-06-10T08:59:57;8.40;;;2.80;;
79493;SDS011;68951;53.130;18.104;2023-06-10T09:02:24;9.10;;;2.60;;
79493;SDS011;68951;53.130;18.104;2023-06-10T09:04:52;7.20;;;2.20;;
79493;SDS011;68951;53.130;18.104;2023-06-10T09:07:20;5.60;;;2.60;;
79493;SDS011;68951;53.130;18.104;2023-06-10T09:09:49;6.70;;;2.80;;
79493;SDS011;68951;53.130;18.104;2023-06-10T09:12:16;7.10;;;2.80;;
79493;SDS011;68951;53.130;18.104;2023-06-10T09:14:43;6.60;;;2.40;;
79493;SDS011;68951;53.130;18.104;2023-06-10T09:17:10;6.30;;;2.70;;
79493;SDS011;68951;53.130;18.104;2023-06-10T09:19:38;7.50;;;3.20;;
79493;SDS011;68951;53.130;18.104;2023-06-10T09:22:06;6.90;;;3.00;;
79493;SDS011;68951;53.130;18.104;2023-06-10T09:24:34;10.50;;;2.80;;
79493;SDS011;68951;53.130;18.104;2023-06-10T09:27:08;7.00;;;2.70;;
79493;SDS011;68951;53.130;18.104;2023-06-10T09:32:18;6.90;;;3.00;;
79493;SDS011;68951;53.130;18.104;2023-06-10T09:34:47;10.10;;;2.90;;
79493;SDS011;68951;53.130;18.104;2023-06-10T09:37:20;7.00;;;2.90;;
79493;SDS011;68951;53.130;18.104;2023-06-10T09:40:07;7.30;;;3.00;;
79493;SDS011;68951;53.130;18.104;2023-06-10T09:42:38;7.40;;;3.10;;
79493;SDS011;68951;53.130;18.104;2023-06-10T09:45:06;7.50;;;3.00;;
79493;SDS011;68951;53.130;18.104;2023-06-10T09:47:34;7.60;;;3.30;;
79493;SDS011;68951;53.130;18.104;2023-06-10T09:50:01;6.00;;;2.90;;
79493;SDS011;68951;53.130;18.104;2023-06-10T09:52:30;7.60;;;3.10;;
79493;SDS011;68951;53.130;18.104;2023-06-10T09:55:01;5.50;;;2.80;;
79493;SDS011;68951;53.130;18.104;2023-06-10T09:57:32;6.80;;;2.80;;
79493;SDS011;68951;53.130;18.104;2023-06-10T10:00:09;5.40;;;2.70;;
79493;SDS011;68951;53.130;18.104;2023-06-10T10:02:48;7.00;;;2.80;;
79493;SDS011;68951;53.130;18.104;2023-06-10T10:05:18;9.60;;;3.20;;
79493;SDS011;68951;53.130;18.104;2023-06-10T10:07:47;7.00;;;3.10;;
79493;SDS011;68951;53.130;18.104;2023-06-10T10:10:17;7.60;;;3.00;;
79493;SDS011;68951;53.130;18.104;2023-06-10T10:12:52;7.00;;;3.00;;
79493;SDS011;68951;53.130;18.104;2023-06-10T10:15:23;8.30;;;3.00;;
79493;SDS011;68951;53.130;18.104;2023-06-10T10:18:07;7.60;;;3.00;;
79493;SDS011;68951;53.130;18.104;2023-06-10T10:20:47;7.60;;;3.00;;
79493;SDS011;68951;53.130;18.104;2023-06-10T10:23:24;6.20;;;2.80;;
79493;SDS011;68951;53.130;18.104;2023-06-10T10:25:58;6.70;;;3.30;;
79493;SDS011;68951;53.130;18.104;2023-06-10T10:28:36;9.50;;;3.30;;
79493;SDS011;68951;53.130;18.104;2023-06-10T10:31:09;6.70;;;3.50;;
79493;SDS011;68951;53.130;18.104;2023-06-10T10:36:20;7.40;;;3.10;;
79493;SDS011;68951;53.130;18.104;2023-06-10T10:38:47;5.50;;;2.90;;
79493;SDS011;68951;53.130;18.104;2023-06-10T10:41:16;5.20;;;3.10;;
79493;SDS011;68951;53.130;18.104;2023-06-10T10:43:45;8.00;;;3.20;;
79493;SDS011;68951;53.130;18.104;2023-06-10T10:46:15;7.50;;;3.40;;
79493;SDS011;68951;53.130;18.104;2023-06-10T10:48:44;9.60;;;3.40;;
79493;SDS011;68951;53.130;18.104;2023-06-10T10:51:11;5.40;;;2.20;;
79493;SDS011;68951;53.130;18.104;2023-06-10T10:53:38;8.10;;;3.00;;
79493;SDS011;68951;53.130;18.104;2023-06-10T10:56:15;7.90;;;3.30;;
79493;SDS011;68951;53.130;18.104;2023-06-10T10:59:05;5.90;;;3.30;;
79493;SDS011;68951;53.130;18.104;2023-06-10T11:01:41;7.00;;;3.20;;
79493;SDS011;68951;53.130;18.104;2023-06-10T11:04:12;9.10;;;3.50;;
79493;SDS011;68951;53.130;18.104;2023-06-10T11:06:39;6.20;;;3.30;;
79493;SDS011;68951;53.130;18.104;2023-06-10T11:09:26;11.30;;;3.90;;
79493;SDS011;68951;53.130;18.104;2023-06-10T11:11:57;7.80;;;2.90;;
79493;SDS011;68951;53.130;18.104;2023-06-10T11:14:29;7.20;;;3.30;;
79493;SDS011;68951;53.130;18.104;2023-06-10T11:17:00;6.20;;;3.00;;
79493;SDS011;68951;53.130;18.104;2023-06-10T11:19:36;10.60;;;3.90;;
79493;SDS011;68951;53.130;18.104;2023-06-10T11:22:07;7.80;;;3.10;;
79493;SDS011;68951;53.130;18.104;2023-06-10T11:24:37;5.70;;;3.20;;
79493;SDS011;68951;53.130;18.104;2023-06-10T11:27:20;7.80;;;3.50;;
79493;SDS011;68951;53.130;18.104;2023-06-10T11:32:32;5.30;;;3.00;;
79493;SDS011;68951;53.130;18.104;2023-06-10T11:35:02;10.50;;;3.20;;
79493;SDS011;68951;53.130;18.104;2023-06-10T11:37:31;13.70;;;3.50;;
79493;SDS011;68951;53.130;18.104;2023-06-10T11:39:58;6.80;;;3.20;;
79493;SDS011;68951;53.130;18.104;2023-06-10T11:42:25;6.50;;;2.90;;
79493;SDS011;68951;53.130;18.104;2023-06-10T11:44:53;8.40;;;3.20;;
79493;SDS011;68951;53.130;18.104;2023-06-10T11:47:21;5.80;;;3.40;;
79493;SDS011;68951;53.130;18.104;2023-06-10T11:49:58;8.40;;;3.30;;
79493;SDS011;68951;53.130;18.104;2023-06-10T11:52:29;11.90;;;3.20;;
79493;SDS011;68951;53.130;18.104;2023-06-10T11:55:00;5.00;;;3.00;;
79493;SDS011;68951;53.130;18.104;2023-06-10T11:57:27;6.70;;;2.90;;
79493;SDS011;68951;53.130;18.104;2023-06-10T11:59:54;6.50;;;3.20;;
79493;SDS011;68951;53.130;18.104;2023-06-10T12:02:21;5.00;;;3.10;;
79493;SDS011;68951;53.130;18.104;2023-06-10T12:04:48;5.80;;;3.20;;
79493;SDS011;68951;53.130;18.104;2023-06-10T12:07:19;8.60;;;2.60;;
79493;SDS011;68951;53.130;18.104;2023-06-10T12:09:46;5.80;;;3.30;;
79493;SDS011;68951;53.130;18.104;2023-06-10T12:12:13;6.00;;;3.20;;
79493;SDS011;68951;53.130;18.104;2023-06-10T12:17:16;11.20;;;3.00;;
79493;SDS011;68951;53.130;18.104;2023-06-10T12:19:43;5.70;;;3.10;;
79493;SDS011;68951;53.130;18.104;2023-06-10T12:22:10;5.50;;;3.20;;
79493;SDS011;68951;53.130;18.104;2023-06-10T12:25:00;6.30;;;2.90;;
79493;SDS011;68951;53.130;18.104;2023-06-10T12:27:30;6.80;;;3.00;;
79493;SDS011;68951;53.130;18.104;2023-06-10T12:29:58;6.30;;;3.00;;
79493;SDS011;68951;53.130;18.104;2023-06-10T12:32:45;5.80;;;2.70;;
79493;SDS011;68951;53.130;18.104;2023-06-10T12:35:19;7.30;;;3.40;;
79493;SDS011;68951;53.130;18.104;2023-06-10T12:38:07;10.20;;;3.00;;
79493;SDS011;68951;53.130;18.104;2023-06-10T12:40:37;9.70;;;3.20;;
79493;SDS011;68951;53.130;18.104;2023-06-10T12:43:07;7.10;;;2.90;;
79493;SDS011;68951;53.130;18.104;2023-06-10T12:48:16;5.30;;;2.70;;
79493;SDS011;68951;53.130;18.104;2023-06-10T12:50:56;7.40;;;3.20;;
79493;SDS011;68951;53.130;18.104;2023-06-10T12:53:25;5.80;;;2.80;;
79493;SDS011;68951;53.130;18.104;2023-06-10T12:55:55;10.40;;;2.90;;
79493;SDS011;68951;53.130;18.104;2023-06-10T12:58:22;9.40;;;3.20;;
79493;SDS011;68951;53.130;18.104;2023-06-10T13:00:50;6.60;;;3.10;;
79493;SDS011;68951;53.130;18.104;2023-06-10T13:03:19;9.00;;;3.60;;
79493;SDS011;68951;53.130;18.104;2023-06-10T13:05:46;8.20;;;3.50;;
79493;SDS011;68951;53.130;18.104;2023-06-10T13:08:13;4.60;;;3.20;;
79493;SDS011;68951;53.130;18.104;2023-06-10T13:10:40;5.70;;;2.60;;
79493;SDS011;68951;53.130;18.104;2023-06-10T13:13:06;6.30;;;3.30;;
79493;SDS011;68951;53.130;18.104;2023-06-10T13:15:36;6.10;;;3.30;;
79493;SDS011;68951;53.130;18.104;2023-06-10T13:18:03;5.70;;;2.70;;
79493;SDS011;68951;53.130;18.104;2023-06-10T13:20:31;6.90;;;3.40;;
79493;SDS011;68951;53.130;18.104;2023-06-10T13:22:58;8.70;;;3.30;;
79493;SDS011;68951;53.130;18.104;2023-06-10T13:25:25;7.50;;;3.40;;
79493;SDS011;68951;53.130;18.104;2023-06-10T13:27:52;6.40;;;3.00;;
79493;SDS011;68951;53.130;18.104;2023-06-10T13:30:19;11.30;;;3.40;;
79493;SDS011;68951;53.130;18.104;2023-06-10T13:32:46;6.10;;;2.80;;
79493;SDS011;68951;53.130;18.104;2023-06-10T13:35:13;6.40;;;3.00;;
79493;SDS011;68951;53.130;18.104;2023-06-10T13:37:40;7.90;;;3.20;;
79493;SDS011;68951;53.130;18.104;2023-06-10T13:40:07;6.80;;;3.10;;
79493;SDS011;68951;53.130;18.104;2023-06-10T13:42:36;6.90;;;2.70;;
79493;SDS011;68951;53.130;18.104;2023-06-10T13:45:04;5.00;;;3.10;;
79493;SDS011;68951;53.130;18.104;2023-06-10T13:47:32;6.00;;;2.60;;
79493;SDS011;68951;53.130;18.104;2023-06-10T13:49:59;10.00;;;2.90;;
79493;SDS011;68951;53.130;18.104;2023-06-10T13:52:26;5.90;;;3.00;;
79493;SDS011;68951;53.130;18.104;2023-06-10T13:54:53;5.10;;;3.10;;
79493;SDS011;68951;53.130;18.104;2023-06-10T13:57:20;8.50;;;3.10;;
79493;SDS011;68951;53.130;18.104;2023-06-10T13:59:46;10.10;;;3.30;;
79493;SDS011;68951;53.130;18.104;2023-06-10T14:02:13;6.10;;;2.70;;
79493;SDS011;68951;53.130;18.104;2023-06-10T14:04:40;6.20;;;2.80;;
79493;SDS011;68951;53.130;18.104;2023-06-10T14:07:07;5.40;;;3.00;;
79493;SDS011;68951;53.130;18.104;2023-06-10T14:09:34;7.40;;;3.20;;
79493;SDS011;68951;53.130;18.104;2023-06-10T14:12:01;7.80;;;3.00;;
79493;SDS011;68951;53.130;18.104;2023-06-10T14:14:30;5.90;;;3.30;;
79493;SDS011;68951;53.130;18.104;2023-06-10T14:16:57;6.50;;;2.60;;
79493;SDS011;68951;53.130;18.104;2023-06-10T14:19:24;6.20;;;3.20;;
79493;SDS011;68951;53.130;18.104;2023-06-10T14:21:51;6.30;;;2.30;;
79493;SDS011;68951;53.130;18.104;2023-06-10T14:24:20;6.30;;;2.80;;
79493;SDS011;68951;53.130;18.104;2023-06-10T14:26:47;4.70;;;3.00;;
79493;SDS011;68951;53.130;18.104;2023-06-10T14:29:14;7.00;;;2.70;;
79493;SDS011;68951;53.130;18.104;2023-06-10T14:31:40;7.60;;;2.80;;
79493;SDS011;68951;53.130;18.104;2023-06-10T14:34:07;6.20;;;3.10;;
79493;SDS011;68951;53.130;18.104;2023-06-10T14:36:34;5.80;;;2.30;;
79493;SDS011;68951;53.130;18.104;2023-06-10T14:39:01;5.50;;;3.20;;
79493;SDS011;68951;53.130;18.104;2023-06-10T14:41:28;5.10;;;2.70;;
79493;SDS011;68951;53.130;18.104;2023-06-10T14:43:55;6.00;;;2.90;;
79493;SDS011;68951;53.130;18.104;2023-06-10T14:46:22;4.70;;;2.30;;
79493;SDS011;68951;53.130;18.104;2023-06-10T14:48:49;5.30;;;2.80;;
79493;SDS011;68951;53.130;18.104;2023-06-10T14:51:16;6.50;;;2.40;;
79493;SDS011;68951;53.130;18.104;2023-06-10T14:53:43;6.20;;;2.70;;
79493;SDS011;68951;53.130;18.104;2023-06-10T14:56:10;6.60;;;2.40;;
79493;SDS011;68951;53.130;18.104;2023-06-10T14:58:37;5.70;;;2.30;;